createdAt,value
2023-01-30T00:00:03.799Z,0.1
2023-01-30T00:02:33.928Z,0.11
2023-01-30T00:05:04.661Z,0.1
2023-01-30T00:07:34.939Z,0.11
2023-01-30T00:10:05.692Z,0.12
2023-01-30T00:12:36.223Z,0.12
2023-01-30T00:15:06.561Z,0.11
2023-01-30T00:17:36.886Z,0.11
2023-01-30T00:20:07.326Z,0.1
2023-01-30T00:22:37.530Z,0.11
2023-01-30T00:25:07.621Z,0.11
2023-01-30T00:27:37.688Z,0.1
2023-01-30T00:30:08.335Z,0.1
2023-01-30T00:32:39.142Z,0.1
2023-01-30T00:35:10.213Z,0.09
2023-01-30T00:37:40.526Z,0.1
2023-01-30T00:40:10.635Z,0.1
2023-01-30T00:42:41.333Z,0.09
2023-01-30T00:45:12.212Z,0.09
2023-01-30T00:47:42.911Z,0.09
2023-01-30T00:50:12.961Z,0.1
2023-01-30T00:52:43.160Z,0.09
2023-01-30T00:55:14.051Z,0.09
2023-01-30T00:57:44.321Z,0.09
2023-01-30T01:00:14.825Z,0.1
2023-01-30T01:02:45.313Z,0.1
2023-01-30T01:05:15.498Z,0.1
2023-01-30T01:07:45.554Z,0.09
2023-01-30T01:10:16.364Z,0.09
2023-01-30T01:12:46.585Z,0.1
2023-01-30T01:15:17.380Z,0.12
2023-01-30T01:17:47.616Z,0.11
2023-01-30T01:20:18.271Z,0.11
2023-01-30T01:22:48.579Z,0.11
2023-01-30T01:25:19.073Z,0.12
2023-01-30T01:27:48.939Z,0.12
2023-01-30T01:30:18.975Z,0.11
2023-01-30T01:32:49.173Z,0.11
2023-01-30T01:35:20.046Z,0.11
2023-01-30T01:37:49.647Z,0.1
2023-01-30T01:40:20.043Z,0.1
2023-01-30T01:42:50.259Z,0.1
2023-01-30T01:45:20.876Z,0.1
2023-01-30T01:47:51.401Z,0.11
2023-01-30T01:50:21.564Z,0.1
2023-01-30T01:52:52.488Z,0.11
2023-01-30T01:55:23.192Z,0.1
2023-01-30T01:57:53.394Z,0.08
2023-01-30T02:00:24.280Z,0.09
2023-01-30T02:02:54.220Z,0.09
2023-01-30T02:05:24.404Z,0.09
2023-01-30T02:07:54.949Z,0.1
2023-01-30T02:10:24.899Z,0.09
2023-01-30T02:12:55.054Z,0.1
2023-01-30T02:15:25.182Z,0.1
2023-01-30T02:17:55.307Z,0.1
2023-01-30T02:20:25.511Z,0.09
2023-01-30T02:22:56.030Z,0.08
2023-01-30T02:25:26.071Z,0.09
2023-01-30T02:27:56.089Z,0.1
2023-01-30T02:30:26.714Z,0.09
2023-01-30T02:32:57.381Z,0.1
2023-01-30T02:35:27.630Z,0.09
2023-01-30T02:37:57.958Z,0.1
2023-01-30T02:40:28.253Z,0.1
2023-01-30T02:42:58.657Z,0.1
2023-01-30T02:45:29.463Z,0.09
2023-01-30T02:48:00.119Z,0.1
2023-01-30T02:50:30.926Z,0.1
2023-01-30T02:53:01.118Z,0.1
2023-01-30T02:55:31.404Z,0.1
2023-01-30T02:58:01.688Z,0.1
2023-01-30T03:00:32.182Z,0.1
2023-01-30T03:03:02.596Z,0.1
2023-01-30T03:05:32.855Z,0.1
2023-01-30T03:10:33.077Z,0.1
2023-01-30T03:13:03.894Z,0.11
2023-01-30T03:15:34.464Z,0.1
2023-01-30T03:18:04.689Z,0.1
2023-01-30T03:20:34.931Z,0.1
2023-01-30T03:23:05.436Z,0.1
2023-01-30T03:25:35.432Z,0.1
2023-01-30T03:28:06.312Z,0.1
2023-01-30T03:30:36.654Z,0.1
2023-01-30T03:33:07.340Z,0.1
2023-01-30T03:35:38.061Z,0.1
2023-01-30T03:38:08.718Z,0.1
2023-01-30T03:40:39.234Z,0.1
2023-01-30T03:43:09.599Z,0.1
2023-01-30T03:45:40.312Z,0.1
2023-01-30T03:48:10.455Z,0.1
2023-01-30T03:50:41.247Z,0.1
2023-01-30T03:53:11.931Z,0.11
2023-01-30T03:55:42.004Z,0.13
2023-01-30T03:58:12.886Z,0.13
2023-01-30T04:00:43.326Z,0.13
2023-01-30T04:03:14.009Z,0.12
2023-01-30T04:05:44.765Z,0.12
2023-01-30T04:08:15.445Z,0.13
2023-01-30T04:10:46.196Z,0.14
2023-01-30T04:13:16.889Z,0.13
2023-01-30T04:15:47.690Z,0.13
2023-01-30T04:18:18.319Z,0.13
2023-01-30T04:20:49.050Z,0.14
2023-01-30T04:23:19.743Z,0.14
2023-01-30T04:25:50.137Z,0.14
2023-01-30T04:28:20.813Z,0.14
2023-01-30T04:30:51.641Z,0.14
2023-01-30T04:33:22.237Z,0.15
2023-01-30T04:35:52.980Z,0.14
2023-01-30T04:38:23.657Z,0.13
2023-01-30T04:40:54.122Z,0.14
2023-01-30T04:43:24.810Z,0.14
2023-01-30T04:45:55.564Z,0.13
2023-01-30T04:48:26.223Z,0.13
2023-01-30T04:50:56.974Z,0.13
2023-01-30T04:53:27.670Z,0.13
2023-01-30T04:55:58.124Z,0.13
2023-01-30T04:58:28.827Z,0.14
2023-01-30T05:00:59.640Z,0.14
2023-01-30T05:03:30.245Z,0.14
2023-01-30T05:06:01.036Z,0.14
2023-01-30T05:08:31.303Z,0.14
2023-01-30T05:11:02.025Z,0.14
2023-01-30T05:13:32.821Z,0.14
2023-01-30T05:16:12.513Z,0.14
2023-01-30T05:56:18.494Z,0.17
2023-01-30T07:09:03.080Z,0.19
2023-01-30T07:24:07.439Z,0.18
2023-01-30T07:29:09.052Z,0.2
2023-01-30T07:46:49.015Z,0.21
2023-01-30T07:51:49.592Z,0.21
2023-01-30T07:54:15.073Z,0.24
2023-01-30T07:56:45.831Z,0.22
2023-01-30T07:59:16.220Z,0.23
2023-01-30T08:01:46.945Z,0.21
2023-01-30T08:04:17.712Z,0.2
2023-01-30T08:06:48.391Z,0.21
2023-01-30T08:09:18.749Z,0.21
2023-01-30T08:11:49.525Z,0.21
2023-01-30T08:14:20.184Z,0.22
2023-01-30T08:16:50.975Z,0.22
2023-01-30T08:19:21.412Z,0.21
2023-01-30T08:21:52.128Z,0.22
2023-01-30T08:24:22.837Z,0.21
2023-01-30T08:26:53.593Z,0.22
2023-01-30T08:29:24.350Z,0.22
2023-01-30T08:31:55.070Z,0.21
2023-01-30T08:34:25.833Z,0.22
2023-01-30T08:36:56.646Z,0.21
2023-01-30T08:39:27.503Z,0.21
2023-01-30T08:41:58.051Z,0.21
2023-01-30T08:44:28.846Z,0.21
2023-01-30T08:46:59.522Z,0.2
2023-01-30T08:49:29.972Z,0.2
2023-01-30T08:52:00.404Z,0.2
2023-01-30T08:54:33.227Z,0.2
2023-01-30T08:57:01.933Z,0.2
2023-01-30T08:59:32.287Z,0.21
2023-01-30T09:02:03.055Z,0.2
2023-01-30T09:04:33.433Z,0.2
2023-01-30T09:07:04.168Z,0.21
2023-01-30T09:09:34.880Z,0.21
2023-01-30T09:12:05.276Z,0.2
2023-01-30T09:14:35.990Z,0.2
2023-01-30T09:17:06.733Z,0.21
2023-01-30T09:19:37.188Z,0.21
2023-01-30T09:22:07.904Z,0.21
2023-01-30T09:24:38.344Z,0.2
2023-01-30T09:27:09.212Z,0.21
2023-01-30T09:29:39.439Z,0.2
2023-01-30T09:32:10.197Z,0.2
2023-01-30T09:34:40.631Z,0.21
2023-01-30T09:37:11.086Z,0.21
2023-01-30T09:39:41.809Z,0.21
2023-01-30T09:42:12.542Z,0.21
2023-01-30T09:44:42.897Z,0.2
2023-01-30T09:47:13.619Z,0.22
2023-01-30T09:49:44.320Z,0.21
2023-01-30T09:52:15.062Z,0.22
2023-01-30T09:54:45.545Z,0.22
2023-01-30T09:57:20.548Z,0.22
2023-01-30T09:59:46.666Z,0.22
2023-01-30T10:02:17.409Z,0.23
2023-01-30T10:05:00.540Z,0.23
2023-01-30T10:07:18.846Z,0.2
2023-01-30T10:09:49.578Z,0.22
2023-01-30T10:12:20.309Z,0.22
2023-01-30T10:14:50.654Z,0.21
2023-01-30T10:17:21.411Z,0.21
2023-01-30T10:19:52.113Z,0.21
2023-01-30T10:22:22.569Z,0.2
2023-01-30T10:24:53.138Z,0.2
2023-01-30T10:27:23.411Z,0.21
2023-01-30T10:29:54.096Z,0.22
2023-01-30T10:32:24.841Z,0.22
2023-01-30T10:34:55.543Z,0.21
2023-01-30T10:37:26.306Z,0.21
2023-01-30T10:39:57.008Z,0.21
2023-01-30T10:42:27.757Z,0.21
2023-01-30T10:44:58.447Z,0.22
2023-01-30T10:47:34.727Z,0.2
2023-01-30T10:49:59.633Z,0.19
2023-01-30T10:52:30.375Z,0.2
2023-01-30T10:55:01.112Z,0.2
2023-01-30T10:57:31.804Z,0.2
2023-01-30T11:00:02.572Z,0.2
2023-01-30T11:02:33.021Z,0.2
2023-01-30T11:05:03.824Z,0.21
2023-01-30T11:07:33.800Z,0.2
2023-01-30T11:10:04.208Z,0.2
2023-01-30T11:12:34.944Z,0.21
2023-01-30T11:15:05.030Z,0.22
2023-01-30T11:17:35.730Z,0.22
2023-01-30T11:20:06.428Z,0.22
2023-01-30T11:22:37.136Z,0.22
2023-01-30T11:25:07.199Z,0.22
2023-01-30T11:27:37.633Z,0.21
2023-01-30T11:30:08.324Z,0.2
2023-01-30T11:32:39.179Z,0.21
2023-01-30T11:35:09.726Z,0.2
2023-01-30T11:37:40.446Z,0.2
2023-01-30T11:40:10.912Z,0.2
2023-01-30T11:42:41.847Z,0.19
2023-01-30T11:45:17.907Z,0.18
2023-01-30T11:47:45.320Z,0.19
2023-01-30T11:50:20.877Z,0.18
2023-01-30T11:52:44.186Z,0.18
2023-01-30T11:55:14.766Z,0.18
2023-01-30T11:57:45.400Z,0.17
2023-01-30T12:00:16.708Z,0.18
2023-01-30T12:02:46.885Z,0.18
2023-01-30T12:05:17.614Z,0.18
2023-01-30T12:07:48.369Z,0.17
2023-01-30T12:10:18.946Z,0.18
2023-01-30T12:12:49.224Z,0.17
2023-01-30T12:15:19.637Z,0.18
2023-01-30T12:17:50.095Z,0.18
2023-01-30T12:20:21.113Z,0.19
2023-01-30T12:22:50.944Z,0.19
2023-01-30T12:25:21.199Z,0.2
2023-01-30T12:27:51.572Z,0.23
2023-01-30T12:30:22.294Z,0.21
2023-01-30T12:32:53.045Z,0.22
2023-01-30T12:35:23.811Z,0.22
2023-01-30T12:37:54.541Z,0.23
2023-01-30T12:40:25.303Z,0.23
2023-01-30T12:42:56.018Z,0.22
2023-01-30T12:45:26.379Z,0.22
2023-01-30T12:47:57.130Z,0.22
2023-01-30T12:50:27.926Z,0.22
2023-01-30T12:52:58.584Z,0.22
2023-01-30T12:55:29.424Z,0.23
2023-01-30T12:58:00.080Z,0.22
2023-01-30T13:00:30.773Z,0.23
2023-01-30T13:03:01.671Z,0.23
2023-01-30T13:05:32.268Z,0.23
2023-01-30T13:08:03.016Z,0.24
2023-01-30T13:10:33.820Z,0.25
2023-01-30T13:13:04.569Z,0.23
2023-01-30T13:15:35.265Z,0.22
2023-01-30T13:18:05.967Z,0.2
2023-01-30T13:20:36.662Z,0.2
2023-01-30T13:23:07.398Z,0.21
2023-01-30T13:25:38.284Z,0.23
2023-01-30T13:28:08.559Z,0.23
2023-01-30T13:30:39.376Z,0.23
2023-01-30T13:33:09.997Z,0.22
2023-01-30T13:35:40.705Z,0.24
2023-01-30T13:38:11.406Z,0.22
2023-01-30T13:40:42.204Z,0.22
2023-01-30T13:43:12.867Z,0.22
2023-01-30T13:45:43.282Z,0.21
2023-01-30T13:48:13.779Z,0.23
2023-01-30T13:50:44.372Z,0.23
2023-01-30T13:53:15.160Z,0.23
2023-01-30T13:55:45.812Z,0.23
2023-01-30T13:58:16.525Z,0.23
2023-01-30T14:00:47.263Z,0.23
2023-01-30T14:03:17.951Z,0.22
2023-01-30T14:05:48.759Z,0.23
2023-01-30T14:08:19.341Z,0.23
2023-01-30T14:10:49.895Z,0.23
2023-01-30T14:13:20.209Z,0.23
2023-01-30T14:15:50.589Z,0.22
2023-01-30T14:18:21.252Z,0.23
2023-01-30T14:20:51.917Z,0.22
2023-01-30T14:23:22.739Z,0.23
2023-01-30T14:25:53.349Z,0.2
2023-01-30T14:28:24.059Z,0.21
2023-01-30T14:30:54.744Z,0.22
2023-01-30T14:33:25.491Z,0.22
2023-01-30T14:35:56.156Z,0.23
2023-01-30T14:38:26.920Z,0.22
2023-01-30T14:40:57.583Z,0.22
2023-01-30T14:43:28.431Z,0.21
2023-01-30T14:45:58.720Z,0.21
2023-01-30T14:48:29.557Z,0.22
2023-01-30T14:51:00.157Z,0.22
2023-01-30T14:53:30.916Z,0.21
2023-01-30T14:56:01.689Z,0.2
2023-01-30T14:58:32.291Z,0.22
2023-01-30T15:01:02.770Z,0.22
2023-01-30T15:03:33.430Z,0.22
2023-01-30T15:06:04.181Z,0.21
2023-01-30T15:08:34.926Z,0.2
2023-01-30T15:11:05.218Z,0.21
2023-01-30T15:13:35.665Z,0.2
2023-01-30T15:16:06.460Z,0.21
2023-01-30T15:18:37.076Z,0.2
2023-01-30T15:21:07.841Z,0.21
2023-01-30T15:23:38.233Z,0.2
2023-01-30T15:26:08.625Z,0.2
2023-01-30T15:28:38.755Z,0.2
2023-01-30T15:31:09.469Z,0.21
2023-01-30T15:33:40.383Z,0.2
2023-01-30T15:36:10.530Z,0.2
2023-01-30T15:38:41.249Z,0.2
2023-01-30T15:41:12.045Z,0.2
2023-01-30T15:43:42.490Z,0.2
2023-01-30T15:46:12.867Z,0.2
2023-01-30T15:48:43.273Z,0.19
2023-01-30T15:51:13.799Z,0.19
2023-01-30T15:53:44.056Z,0.2
2023-01-30T15:56:14.502Z,0.19
2023-01-30T15:58:45.198Z,0.21
2023-01-30T16:01:15.638Z,0.21
2023-01-30T16:03:46.340Z,0.19
2023-01-30T16:06:17.021Z,0.2
2023-01-30T16:08:47.766Z,0.2
2023-01-30T16:11:18.674Z,0.21
2023-01-30T16:13:48.897Z,0.21
2023-01-30T16:16:19.341Z,0.21
2023-01-30T16:18:50.021Z,0.22
2023-01-30T16:21:20.188Z,0.21
2023-01-30T16:23:50.505Z,0.21
2023-01-30T16:26:21.198Z,0.21
2023-01-30T16:28:51.907Z,0.22
2023-01-30T16:31:22.616Z,0.22
2023-01-30T16:33:53.065Z,0.22
2023-01-30T16:36:23.767Z,0.22
2023-01-30T16:38:53.884Z,0.22
2023-01-30T16:41:24.601Z,0.21
2023-01-30T16:43:55.088Z,0.22
2023-01-30T16:46:25.939Z,0.22
2023-01-30T16:48:56.053Z,0.22
2023-01-30T16:51:26.122Z,0.22
2023-01-30T16:53:56.855Z,0.23
2023-01-30T16:56:27.591Z,0.23
2023-01-30T16:58:58.303Z,0.23
2023-01-30T17:01:29.095Z,0.23
2023-01-30T17:03:59.758Z,0.22
2023-01-30T17:06:30.219Z,0.23
2023-01-30T17:09:00.995Z,0.22
2023-01-30T17:11:31.720Z,0.22
2023-01-30T17:14:02.461Z,0.21
2023-01-30T17:16:33.161Z,0.21
2023-01-30T17:19:03.915Z,0.21
2023-01-30T17:21:34.599Z,0.21
2023-01-30T17:24:05.348Z,0.21
2023-01-30T17:26:36.097Z,0.2
2023-01-30T17:29:11.899Z,0.2
2023-01-30T17:31:37.236Z,0.2
2023-01-30T17:34:07.907Z,0.21
2023-01-30T17:36:38.715Z,0.2
2023-01-30T17:39:09.076Z,0.2
2023-01-30T17:41:39.896Z,0.19
2023-01-30T17:44:10.383Z,0.19
2023-01-30T17:46:41.036Z,0.2
2023-01-30T17:49:11.631Z,0.2
2023-01-30T17:51:42.413Z,0.2
2023-01-30T17:54:12.396Z,0.2
2023-01-30T17:56:43.095Z,0.2
2023-01-30T17:59:13.848Z,0.2
2023-01-30T18:01:43.968Z,0.2
2023-01-30T18:04:14.659Z,0.2
2023-01-30T18:06:45.381Z,0.2
2023-01-30T18:09:16.024Z,0.2
2023-01-30T18:11:46.799Z,0.2
2023-01-30T18:14:17.484Z,0.22
2023-01-30T18:16:48.039Z,0.2
2023-01-30T18:19:18.648Z,0.2
2023-01-30T18:21:49.347Z,0.17
2023-01-30T18:24:19.927Z,0.21
2023-01-30T18:26:50.323Z,0.21
2023-01-30T18:29:21.090Z,0.2
2023-01-30T18:31:51.917Z,0.21
2023-01-30T18:34:22.269Z,0.2
2023-01-30T18:36:52.871Z,0.21
2023-01-30T18:39:23.569Z,0.21
2023-01-30T18:41:54.321Z,0.2
2023-01-30T18:44:24.785Z,0.21
2023-01-30T18:46:55.474Z,0.21
2023-01-30T18:49:26.044Z,0.21
2023-01-30T18:51:56.677Z,0.21
2023-01-30T18:54:27.441Z,0.21
2023-01-30T18:56:58.199Z,0.21
2023-01-30T18:59:28.939Z,0.2
2023-01-30T19:01:59.295Z,0.21
2023-01-30T19:04:30.048Z,0.21
2023-01-30T19:07:00.767Z,0.2
2023-01-30T19:09:31.272Z,0.2
2023-01-30T19:12:01.994Z,0.2
2023-01-30T19:14:32.734Z,0.21
2023-01-30T19:17:03.480Z,0.21
2023-01-30T19:19:34.207Z,0.21
2023-01-30T19:22:04.915Z,0.21
2023-01-30T19:24:35.675Z,0.22
2023-01-30T19:27:06.385Z,0.22
2023-01-30T19:29:36.952Z,0.21
2023-01-30T19:32:07.612Z,0.22
2023-01-30T19:34:38.354Z,0.21
2023-01-30T19:37:09.082Z,0.21
2023-01-30T19:39:39.873Z,0.21
2023-01-30T19:42:10.611Z,0.22
2023-01-30T19:44:41.389Z,0.21
2023-01-30T19:47:12.152Z,0.2
2023-01-30T19:49:42.569Z,0.2
2023-01-30T19:52:13.330Z,0.21
2023-01-30T19:54:44.131Z,0.22
2023-01-30T19:57:14.881Z,0.21
2023-01-30T19:59:45.807Z,0.21
2023-01-30T20:02:16.445Z,0.21
2023-01-30T20:04:47.234Z,0.22
2023-01-30T20:07:17.369Z,0.21
2023-01-30T20:09:48.157Z,0.2
2023-01-30T20:12:18.649Z,0.22
2023-01-30T20:14:49.443Z,0.21
2023-01-30T20:17:19.882Z,0.21
2023-01-30T20:19:50.377Z,0.21
2023-01-30T20:22:21.148Z,0.23
2023-01-30T20:24:51.944Z,0.21
2023-01-30T20:27:22.432Z,0.23
2023-01-30T20:29:53.320Z,0.22
2023-01-30T20:32:23.992Z,0.22
2023-01-30T20:34:54.512Z,0.22
2023-01-30T20:37:25.217Z,0.21
2023-01-30T20:39:56.091Z,0.21
2023-01-30T20:42:26.765Z,0.21
2023-01-30T20:44:57.537Z,0.21
2023-01-30T20:47:28.398Z,0.22
2023-01-30T20:49:59.097Z,0.21
2023-01-30T20:52:29.908Z,0.22
2023-01-30T20:55:00.671Z,0.22
2023-01-30T20:57:31.161Z,0.22
2023-01-30T21:00:02.210Z,0.22
2023-01-30T21:02:32.456Z,0.23
2023-01-30T21:05:03.239Z,0.21
2023-01-30T21:07:34.014Z,0.22
2023-01-30T21:10:04.729Z,0.21
2023-01-30T21:12:35.259Z,0.21
2023-01-30T21:15:06.032Z,0.21
2023-01-30T21:17:36.958Z,0.21
2023-01-30T21:20:07.601Z,0.21
2023-01-30T21:22:38.084Z,0.2
2023-01-30T21:25:08.884Z,0.21
2023-01-30T21:27:40.736Z,0.21
2023-01-30T21:30:10.442Z,0.21
2023-01-30T21:32:41.202Z,0.21
2023-01-30T21:35:11.996Z,0.21
2023-01-30T21:37:42.750Z,0.21
2023-01-30T21:40:13.537Z,0.2
2023-01-30T21:42:44.291Z,0.2
2023-01-30T21:45:15.069Z,0.2
2023-01-30T21:47:45.851Z,0.21
2023-01-30T21:50:16.624Z,0.21
2023-01-30T21:52:47.366Z,0.2
2023-01-30T21:55:18.324Z,0.2
2023-01-30T21:57:48.872Z,0.21
2023-01-30T22:00:19.656Z,0.21
2023-01-30T22:02:50.404Z,0.21
2023-01-30T22:05:21.793Z,0.21
2023-01-30T22:07:51.934Z,0.2
2023-01-30T22:10:22.707Z,0.21
2023-01-30T22:12:53.690Z,0.21
2023-01-30T22:15:24.244Z,0.21
2023-01-30T22:17:55.027Z,0.21
2023-01-30T22:20:25.769Z,0.21
2023-01-30T22:22:56.533Z,0.2
2023-01-30T22:25:27.328Z,0.2
2023-01-30T22:27:58.060Z,0.2
2023-01-30T22:30:28.796Z,0.21
2023-01-30T22:32:59.558Z,0.2
2023-01-30T22:35:30.044Z,0.21
2023-01-30T22:38:00.799Z,0.2
2023-01-30T22:40:31.173Z,0.21
2023-01-30T22:43:01.682Z,0.21
2023-01-30T22:45:32.176Z,0.21
2023-01-30T22:48:03.112Z,0.2
2023-01-30T22:50:33.616Z,0.21
2023-01-30T22:53:04.025Z,0.21
2023-01-30T22:55:34.770Z,0.21
2023-01-30T22:58:05.542Z,0.21
2023-01-30T23:00:36.873Z,0.2
2023-01-30T23:03:07.116Z,0.21
2023-01-30T23:05:38.046Z,0.2
2023-01-30T23:08:08.620Z,0.2
2023-01-30T23:10:39.368Z,0.2
2023-01-30T23:13:10.143Z,0.19
2023-01-30T23:15:40.929Z,0.2
2023-01-30T23:18:11.129Z,0.2
2023-01-30T23:20:41.957Z,0.2
2023-01-30T23:23:12.787Z,0.2
2023-01-30T23:25:43.425Z,0.2
2023-01-30T23:28:14.307Z,0.19
2023-01-30T23:35:46.555Z,0.19
2023-01-30T23:38:17.477Z,0.2
2023-01-30T23:40:48.074Z,0.2
2023-01-30T23:43:18.521Z,0.2
2023-01-30T23:45:49.282Z,0.2
2023-01-30T23:48:19.789Z,0.21
2023-01-30T23:50:50.520Z,0.2
2023-01-30T23:53:21.328Z,0.2
2023-01-30T23:55:52.098Z,0.2
2023-01-30T23:58:22.881Z,0.2
